createdAt,value
2023-05-13T00:01:05.805Z,95.78
2023-05-13T00:03:34.084Z,95.78
2023-05-13T00:06:03.885Z,95.28
2023-05-13T00:08:31.636Z,95.39
2023-05-13T00:11:28.580Z,95.41
2023-05-13T00:13:58.145Z,96.08
2023-05-13T00:16:31.517Z,96.20
2023-05-13T00:18:59.809Z,96.46
2023-05-13T00:21:33.055Z,96.96
2023-05-13T00:24:07.923Z,96.65
2023-05-13T00:26:36.518Z,97.05
2023-05-13T00:29:04.712Z,96.87
2023-05-13T00:31:33.703Z,97.42
2023-05-13T00:34:01.571Z,97.60
2023-05-13T00:36:40.272Z,97.95
2023-05-13T00:39:29.972Z,96.65
2023-05-13T00:41:57.763Z,96.37
2023-05-13T00:44:25.908Z,96.37
2023-05-13T00:46:57.276Z,96.72
2023-05-13T00:49:24.407Z,97.30
2023-05-13T00:51:56.121Z,97.29
2023-05-13T00:54:23.344Z,96.66
2023-05-13T00:56:55.308Z,97.42
2023-05-13T00:59:25.210Z,96.73
2023-05-13T01:02:04.585Z,96.31
2023-05-13T01:04:47.126Z,96.97
2023-05-13T01:07:36.159Z,96.88
2023-05-13T01:10:06.800Z,96.48
2023-05-13T01:12:39.215Z,97.21
2023-05-13T01:15:09.927Z,96.80
2023-05-13T01:17:51.235Z,95.95
2023-05-13T01:20:24.816Z,96.19
2023-05-13T01:22:52.022Z,97.01
2023-05-13T01:25:19.917Z,96.95
2023-05-13T01:27:46.589Z,97.00
2023-05-13T01:30:14.879Z,97.92
2023-05-13T01:32:41.917Z,97.75
2023-05-13T01:35:11.616Z,98.28
2023-05-13T01:37:39.656Z,98.26
2023-05-13T01:40:20.330Z,98.10
2023-05-13T01:42:54.756Z,98.54
2023-05-13T01:45:21.585Z,97.92
2023-05-13T01:47:49.032Z,98.59
2023-05-13T01:50:16.378Z,98.46
2023-05-13T01:52:44.434Z,97.61
2023-05-13T01:55:11.587Z,99.42
2023-05-13T01:57:38.848Z,99.41
2023-05-13T02:00:09.876Z,99.48
2023-05-13T02:02:36.824Z,99.38
2023-05-13T02:05:04.766Z,99.86
2023-05-13T02:07:32.441Z,99.02
2023-05-13T02:10:00.639Z,99.97
2023-05-13T02:12:27.669Z,99.80
2023-05-13T02:14:56.368Z,98.58
2023-05-13T02:17:23.859Z,98.80
2023-05-13T02:19:51.049Z,98.96
2023-05-13T02:22:24.083Z,100.00
2023-05-13T02:24:53.974Z,100.00
2023-05-13T02:27:24.069Z,100.00
2023-05-13T02:29:51.110Z,100.00
2023-05-13T02:32:19.153Z,100.00
2023-05-13T02:34:45.975Z,100.00
2023-05-13T02:37:12.705Z,100.00
2023-05-13T02:39:39.482Z,100.00
2023-05-13T02:42:06.695Z,100.00
2023-05-13T02:44:33.598Z,100.00
2023-05-13T02:47:01.250Z,100.00
2023-05-13T02:49:28.082Z,98.85
2023-05-13T02:51:54.832Z,99.14
2023-05-13T02:54:21.746Z,99.74
2023-05-13T02:56:48.776Z,100.00
2023-05-13T02:59:16.297Z,99.51
2023-05-13T03:01:43.583Z,99.83
2023-05-13T03:04:10.446Z,98.76
2023-05-13T03:06:38.290Z,98.89
2023-05-13T03:09:06.157Z,99.31
2023-05-13T03:11:33.125Z,100.00
2023-05-13T03:13:59.957Z,100.00
2023-05-13T03:16:30.036Z,100.00
2023-05-13T03:18:56.975Z,100.00
2023-05-13T03:21:23.876Z,100.00
2023-05-13T03:23:51.337Z,100.00
2023-05-13T03:26:18.462Z,99.70
2023-05-13T03:28:45.871Z,100.00
2023-05-13T03:31:13.636Z,100.00
2023-05-13T03:33:40.904Z,100.00
2023-05-13T03:36:08.021Z,100.00
2023-05-13T03:38:35.280Z,100.00
2023-05-13T03:41:02.006Z,100.00
2023-05-13T03:43:29.240Z,100.00
2023-05-13T03:45:56.112Z,100.00
2023-05-13T03:48:23.145Z,100.00
2023-05-13T03:50:50.146Z,100.00
2023-05-13T03:53:17.450Z,99.10
2023-05-13T03:55:46.172Z,98.27
2023-05-13T03:58:16.699Z,97.75
2023-05-13T04:00:46.982Z,96.07
2023-05-13T04:03:14.946Z,96.21
2023-05-13T04:05:41.984Z,94.19
2023-05-13T04:08:09.186Z,93.31
2023-05-13T04:10:37.458Z,92.14
2023-05-13T04:13:05.731Z,92.26
2023-05-13T04:15:32.805Z,92.04
2023-05-13T04:18:00.862Z,87.50
2023-05-13T04:20:27.770Z,84.49
2023-05-13T04:22:56.014Z,83.46
2023-05-13T04:25:26.043Z,82.29
2023-05-13T04:28:02.440Z,81.48
2023-05-13T04:30:33.056Z,77.90
2023-05-13T04:33:00.749Z,76.13
2023-05-13T04:35:28.331Z,73.97
2023-05-13T04:37:58.377Z,71.73
2023-05-13T04:40:28.696Z,72.54
2023-05-13T04:42:56.009Z,72.03
2023-05-13T04:45:25.885Z,75.41
2023-05-13T04:47:53.956Z,72.65
2023-05-13T04:50:22.910Z,70.83
2023-05-13T04:52:51.275Z,67.59
2023-05-13T04:55:18.770Z,65.44
2023-05-13T04:57:46.147Z,62.32
2023-05-13T05:00:23.501Z,62.62
2023-05-13T05:02:51.388Z,60.50
2023-05-13T05:05:26.059Z,57.20
2023-05-13T05:07:53.271Z,55.06
2023-05-13T05:10:24.050Z,56.45
2023-05-13T05:12:51.197Z,53.51
2023-05-13T05:15:21.406Z,52.81
2023-05-13T05:17:48.614Z,51.00
2023-05-13T05:20:15.963Z,53.08
2023-05-13T05:22:43.172Z,52.06
2023-05-13T05:25:14.764Z,51.25
2023-05-13T05:27:41.655Z,50.87
2023-05-13T05:30:10.908Z,52.00
2023-05-13T05:32:38.388Z,50.70
2023-05-13T05:35:06.402Z,48.95
2023-05-13T05:37:39.137Z,47.54
2023-05-13T05:40:07.041Z,47.04
2023-05-13T05:42:34.648Z,47.37
2023-05-13T05:45:01.677Z,44.46
2023-05-13T05:47:28.850Z,44.63
2023-05-13T05:49:55.817Z,42.94
2023-05-13T05:52:23.896Z,43.04
2023-05-13T05:54:51.115Z,43.51
2023-05-13T05:57:18.191Z,42.38
2023-05-13T05:59:45.627Z,41.02
2023-05-13T06:02:12.978Z,40.53
2023-05-13T06:04:41.923Z,40.23
2023-05-13T06:07:12.616Z,40.43
2023-05-13T06:09:48.060Z,38.38
2023-05-13T06:12:15.350Z,39.06
2023-05-13T06:14:43.582Z,38.22
2023-05-13T06:17:10.505Z,37.71
2023-05-13T06:22:36.411Z,39.33
2023-05-13T06:25:03.983Z,41.02
2023-05-13T06:27:31.101Z,40.85
2023-05-13T06:30:04.737Z,40.10
2023-05-13T06:32:31.904Z,41.06
2023-05-13T06:34:58.703Z,40.49
2023-05-13T06:37:25.618Z,41.85
2023-05-13T06:39:52.552Z,40.40
2023-05-13T06:42:19.511Z,39.43
2023-05-13T06:44:46.414Z,39.72
2023-05-13T06:47:16.220Z,40.61
2023-05-13T06:49:46.421Z,42.58
2023-05-13T06:52:13.435Z,41.95
2023-05-13T06:54:40.445Z,42.21
2023-05-13T06:57:07.651Z,41.11
2023-05-13T06:59:35.324Z,40.82
2023-05-13T07:02:11.369Z,39.25
2023-05-13T07:04:41.403Z,38.80
2023-05-13T07:07:08.210Z,39.32
2023-05-13T07:09:35.387Z,39.48
2023-05-13T07:12:02.305Z,39.21
2023-05-13T07:14:29.142Z,38.55
2023-05-13T07:16:55.973Z,37.34
2023-05-13T07:19:23.049Z,37.29
2023-05-13T07:21:49.917Z,37.96
2023-05-13T07:24:17.068Z,38.80
2023-05-13T07:26:43.941Z,38.24
2023-05-13T07:29:11.006Z,37.60
2023-05-13T07:31:38.022Z,37.81
2023-05-13T07:34:05.059Z,35.29
2023-05-13T07:36:31.958Z,36.51
2023-05-13T07:38:59.468Z,37.04
2023-05-13T07:41:27.765Z,37.76
2023-05-13T07:43:55.172Z,37.65
2023-05-13T07:46:22.106Z,36.20
2023-05-13T07:48:48.855Z,35.83
2023-05-13T07:51:18.506Z,36.34
2023-05-13T07:53:47.299Z,36.59
2023-05-13T07:56:14.197Z,34.86
2023-05-13T07:58:41.220Z,37.48
2023-05-13T08:01:08.353Z,35.86
2023-05-13T08:03:35.232Z,33.56
2023-05-13T08:06:02.184Z,34.69
2023-05-13T08:08:29.178Z,35.08
2023-05-13T08:10:56.665Z,34.83
2023-05-13T08:13:23.643Z,33.20
2023-05-13T08:15:50.648Z,33.98
2023-05-13T08:18:17.512Z,32.74
2023-05-13T08:20:44.500Z,34.46
2023-05-13T08:23:11.714Z,32.22
2023-05-13T08:25:39.009Z,31.88
2023-05-13T08:28:05.966Z,29.83
2023-05-13T08:30:33.320Z,31.21
2023-05-13T08:33:00.283Z,31.43
2023-05-13T08:35:27.067Z,32.23
2023-05-13T08:37:53.880Z,32.95
2023-05-13T08:40:21.347Z,31.45
2023-05-13T08:42:52.088Z,30.89
2023-05-13T08:45:21.845Z,31.28
2023-05-13T08:47:54.658Z,30.94
2023-05-13T08:50:22.804Z,31.46
2023-05-13T08:52:52.625Z,32.08
2023-05-13T08:55:19.812Z,32.31
2023-05-13T08:57:46.950Z,32.56
2023-05-13T09:00:14.769Z,32.41
2023-05-13T09:02:42.098Z,32.25
2023-05-13T09:05:10.767Z,32.78
2023-05-13T09:07:39.275Z,32.42
2023-05-13T09:10:07.829Z,32.90
2023-05-13T09:12:49.857Z,32.17
2023-05-13T09:15:22.745Z,33.02
2023-05-13T09:17:53.373Z,34.87
2023-05-13T09:20:22.381Z,35.06
2023-05-13T09:22:52.172Z,34.87
2023-05-13T09:25:21.296Z,34.73
2023-05-13T09:27:54.084Z,33.35
2023-05-13T09:30:22.013Z,33.15
2023-05-13T09:33:13.882Z,34.17
2023-05-13T09:35:45.892Z,34.85
2023-05-13T09:38:37.018Z,34.57
2023-05-13T09:41:04.064Z,33.32
2023-05-13T09:43:34.501Z,33.43
2023-05-13T09:46:03.805Z,32.69
2023-05-13T09:48:33.132Z,31.76
2023-05-13T09:51:00.759Z,32.84
2023-05-13T09:53:27.864Z,32.90
2023-05-13T09:55:58.828Z,32.77
2023-05-13T09:58:37.337Z,33.17
2023-05-13T10:01:04.901Z,32.46
2023-05-13T10:03:32.245Z,32.31
2023-05-13T10:06:02.268Z,31.04
2023-05-13T10:08:30.776Z,32.23
2023-05-13T10:10:58.515Z,31.56
2023-05-13T10:13:26.449Z,31.05
2023-05-13T10:15:55.408Z,31.84
2023-05-13T10:18:24.635Z,31.63
2023-05-13T10:20:54.098Z,31.85
2023-05-13T10:23:24.422Z,30.73
2023-05-13T10:25:54.487Z,31.52
2023-05-13T10:28:21.799Z,30.49
2023-05-13T10:30:52.476Z,30.93
2023-05-13T10:33:20.380Z,31.41
2023-05-13T10:36:11.497Z,30.36
2023-05-13T10:38:55.373Z,32.39
2023-05-13T10:42:00.173Z,33.05
2023-05-13T10:44:27.549Z,34.55
2023-05-13T10:46:57.041Z,34.49
2023-05-13T10:49:25.663Z,34.51
2023-05-13T10:51:52.986Z,36.13
2023-05-13T10:54:25.100Z,35.30
2023-05-13T10:56:59.376Z,35.33
2023-05-13T10:59:30.641Z,35.44
2023-05-13T11:02:22.124Z,35.66
2023-05-13T11:05:00.422Z,35.95
2023-05-13T11:07:30.286Z,38.11
2023-05-13T11:09:57.095Z,37.54
2023-05-13T11:12:24.225Z,34.62
2023-05-13T11:14:56.406Z,35.88
2023-05-13T11:17:23.296Z,34.41
2023-05-13T11:19:52.601Z,34.25
2023-05-13T11:22:21.802Z,33.32
2023-05-13T11:25:04.255Z,34.16
2023-05-13T11:27:37.964Z,32.78
2023-05-13T11:30:25.976Z,33.74
2023-05-13T11:33:05.723Z,34.72
2023-05-13T11:35:33.493Z,34.51
2023-05-13T11:38:03.319Z,33.36
2023-05-13T11:40:45.604Z,33.48
2023-05-13T11:43:19.485Z,34.56
2023-05-13T11:45:47.495Z,35.09
2023-05-13T11:48:22.493Z,36.76
2023-05-13T11:50:52.104Z,34.78
2023-05-13T11:53:25.045Z,35.36
2023-05-13T11:55:51.914Z,35.90
2023-05-13T11:58:21.595Z,37.15
2023-05-13T12:00:48.607Z,37.02
2023-05-13T12:03:16.600Z,36.33
2023-05-13T12:05:46.434Z,36.63
2023-05-13T12:08:13.569Z,38.15
2023-05-13T12:10:45.121Z,38.28
2023-05-13T12:13:12.497Z,36.80
2023-05-13T12:15:39.916Z,36.92
2023-05-13T12:18:07.759Z,35.20
2023-05-13T12:20:34.694Z,36.05
2023-05-13T12:23:01.900Z,36.25
2023-05-13T12:25:50.347Z,37.00
2023-05-13T12:28:24.986Z,36.69
2023-05-13T12:30:57.752Z,37.40
2023-05-13T12:33:30.040Z,37.86
2023-05-13T12:36:24.190Z,36.87
2023-05-13T12:39:02.671Z,37.39
2023-05-13T12:41:35.443Z,37.31
2023-05-13T12:44:04.450Z,35.75
2023-05-13T12:46:31.601Z,36.79
2023-05-13T12:49:01.223Z,36.46
2023-05-13T12:51:33.925Z,36.27
2023-05-13T12:54:01.041Z,37.67
2023-05-13T12:56:28.092Z,37.15
2023-05-13T12:58:54.986Z,36.27
2023-05-13T13:01:22.176Z,37.61
2023-05-13T13:03:49.314Z,36.38
2023-05-13T13:06:16.707Z,36.58
2023-05-13T13:08:43.521Z,37.31
2023-05-13T13:11:10.645Z,36.84
2023-05-13T13:13:39.254Z,38.32
2023-05-13T13:16:07.511Z,37.68
2023-05-13T13:18:37.404Z,38.07
2023-05-13T13:21:05.476Z,38.18
2023-05-13T13:23:32.226Z,38.68
2023-05-13T13:25:59.463Z,37.32
2023-05-13T13:28:29.227Z,39.20
2023-05-13T13:30:56.357Z,38.59
2023-05-13T13:33:23.266Z,38.90
2023-05-13T13:35:50.113Z,37.79
2023-05-13T13:38:16.817Z,38.64
2023-05-13T13:40:43.654Z,39.60
2023-05-13T13:43:10.678Z,40.44
2023-05-13T13:45:37.568Z,41.03
2023-05-13T13:48:04.822Z,39.01
2023-05-13T13:50:34.764Z,38.58
2023-05-13T13:53:01.500Z,39.03
2023-05-13T13:55:28.326Z,38.99
2023-05-13T13:57:58.117Z,39.54
2023-05-13T14:00:28.115Z,40.53
2023-05-13T14:02:54.934Z,40.26
2023-05-13T14:05:21.844Z,38.31
2023-05-13T14:07:49.648Z,39.19
2023-05-13T14:10:16.539Z,39.11
2023-05-13T14:12:43.304Z,37.40
2023-05-13T14:15:10.499Z,37.06
2023-05-13T14:17:37.266Z,36.79
2023-05-13T14:20:04.874Z,35.31
2023-05-13T14:22:32.969Z,36.59
2023-05-13T14:24:59.722Z,34.98
2023-05-13T14:27:26.625Z,35.11
2023-05-13T14:29:53.380Z,34.31
2023-05-13T14:32:20.298Z,34.54
2023-05-13T14:34:47.191Z,33.88
2023-05-13T14:37:14.073Z,33.82
2023-05-13T14:39:40.952Z,33.43
2023-05-13T14:42:07.834Z,33.02
2023-05-13T14:44:37.457Z,34.03
2023-05-13T14:47:04.796Z,33.16
2023-05-13T14:49:31.642Z,34.12
2023-05-13T14:51:59.016Z,34.12
2023-05-13T14:54:26.356Z,36.33
2023-05-13T14:56:53.380Z,35.01
2023-05-13T14:59:20.387Z,34.91
2023-05-13T15:01:47.409Z,35.91
2023-05-13T15:04:14.769Z,37.25
2023-05-13T15:06:41.723Z,36.56
2023-05-13T15:09:08.606Z,37.01
2023-05-13T15:11:35.618Z,36.04
2023-05-13T15:14:03.287Z,36.31
2023-05-13T15:16:33.039Z,38.13
2023-05-13T15:19:00.146Z,39.06
2023-05-13T15:21:27.131Z,38.52
2023-05-13T15:23:53.878Z,37.70
2023-05-13T15:26:21.204Z,39.87
2023-05-13T15:28:48.163Z,39.15
2023-05-13T15:31:14.975Z,38.47
2023-05-13T15:33:43.864Z,39.49
2023-05-13T15:36:12.206Z,39.51
2023-05-13T15:38:39.133Z,40.66
2023-05-13T15:41:06.237Z,38.76
2023-05-13T15:43:34.401Z,39.43
2023-05-13T15:46:01.580Z,40.29
2023-05-13T15:48:29.391Z,40.81
2023-05-13T15:50:56.071Z,41.59
2023-05-13T15:53:22.942Z,40.05
2023-05-13T15:55:49.652Z,40.27
2023-05-13T15:58:16.659Z,42.21
2023-05-13T16:00:43.498Z,41.40
2023-05-13T16:03:10.615Z,42.57
2023-05-13T16:05:38.877Z,41.38
2023-05-13T16:08:06.220Z,43.83
2023-05-13T16:10:35.821Z,44.49
2023-05-13T16:13:02.830Z,46.81
2023-05-13T16:15:29.752Z,47.96
2023-05-13T16:17:56.939Z,51.00
2023-05-13T16:20:24.502Z,51.44
2023-05-13T16:22:51.975Z,53.92
2023-05-13T16:25:18.911Z,51.98
2023-05-13T16:27:46.141Z,53.39
2023-05-13T16:30:13.438Z,55.47
2023-05-13T16:32:40.342Z,56.05
2023-05-13T16:35:08.088Z,56.97
2023-05-13T16:37:35.638Z,57.83
2023-05-13T16:40:02.434Z,58.41
2023-05-13T16:42:29.472Z,58.56
2023-05-13T16:44:56.524Z,58.54
2023-05-13T16:47:23.634Z,59.81
2023-05-13T16:49:50.509Z,61.21
2023-05-13T16:52:17.553Z,62.40
2023-05-13T16:54:44.849Z,63.01
2023-05-13T16:57:11.855Z,63.56
2023-05-13T16:59:38.703Z,63.44
2023-05-13T17:02:06.199Z,64.11
2023-05-13T17:04:34.313Z,64.78
2023-05-13T17:07:04.048Z,65.22
2023-05-13T17:09:31.452Z,65.45
2023-05-13T17:11:58.404Z,65.29
2023-05-13T17:14:25.634Z,66.50
2023-05-13T17:16:55.915Z,66.62
2023-05-13T17:19:23.338Z,67.04
2023-05-13T17:21:54.217Z,67.71
2023-05-13T17:24:22.765Z,67.89
2023-05-13T17:26:57.406Z,68.13
2023-05-13T17:29:56.742Z,68.43
2023-05-13T17:32:57.432Z,68.94
2023-05-13T17:35:24.172Z,69.39
2023-05-13T17:37:51.054Z,69.87
2023-05-13T17:40:17.919Z,70.66
2023-05-13T17:42:44.930Z,70.62
2023-05-13T17:45:12.172Z,71.37
2023-05-13T17:47:39.339Z,72.12
2023-05-13T17:50:06.796Z,72.38
2023-05-13T17:52:33.572Z,72.99
2023-05-13T17:55:00.452Z,73.34
2023-05-13T17:57:28.092Z,74.14
2023-05-13T17:59:55.106Z,74.14
2023-05-13T18:02:22.225Z,74.13
2023-05-13T18:04:49.039Z,74.66
2023-05-13T18:07:16.081Z,74.69
2023-05-13T18:09:43.261Z,75.45
2023-05-13T18:12:10.017Z,76.94
2023-05-13T18:14:36.914Z,76.76
2023-05-13T18:17:04.722Z,76.30
2023-05-13T18:19:31.489Z,76.55
2023-05-13T18:21:58.240Z,77.69
2023-05-13T18:24:25.265Z,77.61
2023-05-13T18:26:52.081Z,77.96
2023-05-13T18:29:19.339Z,77.80
2023-05-13T18:31:46.316Z,78.71
2023-05-13T18:34:13.224Z,78.75
2023-05-13T18:36:40.377Z,80.52
2023-05-13T18:39:08.769Z,79.72
2023-05-13T18:41:36.212Z,80.43
2023-05-13T18:44:05.863Z,80.63
2023-05-13T18:46:33.027Z,81.68
2023-05-13T18:49:17.994Z,81.96
2023-05-13T18:51:45.689Z,81.62
2023-05-13T18:54:12.915Z,81.86
2023-05-13T18:56:40.043Z,82.08
2023-05-13T18:59:10.039Z,82.11
2023-05-13T19:01:37.556Z,83.91
2023-05-13T19:04:04.622Z,83.17
2023-05-13T19:06:32.270Z,83.52
2023-05-13T19:09:00.876Z,82.51
2023-05-13T19:11:27.829Z,83.59
2023-05-13T19:13:55.055Z,83.85
2023-05-13T19:16:22.110Z,83.35
2023-05-13T19:18:49.060Z,84.01
2023-05-13T19:21:16.305Z,84.13
2023-05-13T19:23:43.342Z,83.92
2023-05-13T19:26:10.324Z,84.65
2023-05-13T19:28:38.310Z,85.33
2023-05-13T19:31:06.223Z,85.19
2023-05-13T19:33:33.365Z,83.77
2023-05-13T19:36:00.505Z,84.18
2023-05-13T19:38:27.225Z,85.15
2023-05-13T19:40:55.032Z,84.16
2023-05-13T19:43:21.802Z,84.75
2023-05-13T19:45:48.820Z,86.19
2023-05-13T19:48:16.178Z,86.10
2023-05-13T19:50:43.222Z,87.02
2023-05-13T19:53:10.123Z,86.04
2023-05-13T19:55:37.234Z,86.27
2023-05-13T19:58:04.178Z,87.21
2023-05-13T20:00:31.010Z,86.47
2023-05-13T20:02:58.068Z,86.99
2023-05-13T20:05:24.981Z,87.27
2023-05-13T20:07:52.143Z,87.09
2023-05-13T20:10:19.020Z,87.82
2023-05-13T20:12:46.050Z,88.07
2023-05-13T20:15:12.820Z,88.15
2023-05-13T20:17:39.730Z,88.85
2023-05-13T20:20:08.419Z,88.18
2023-05-13T20:22:35.446Z,89.08
2023-05-13T20:25:02.480Z,89.42
2023-05-13T20:27:32.512Z,88.89
2023-05-13T20:30:12.826Z,90.45
2023-05-13T20:32:43.082Z,90.11
2023-05-13T20:35:38.859Z,90.23
2023-05-13T20:38:06.813Z,90.71
2023-05-13T20:40:58.485Z,90.73
2023-05-13T20:43:26.118Z,91.80
2023-05-13T20:46:00.920Z,90.97
2023-05-13T20:48:32.464Z,92.34
2023-05-13T20:51:03.065Z,92.13
2023-05-13T20:53:30.948Z,94.26
2023-05-13T20:55:58.179Z,93.01
2023-05-13T20:58:26.490Z,93.88
2023-05-13T21:00:53.377Z,93.59
2023-05-13T21:03:20.912Z,94.11
2023-05-13T21:05:48.667Z,94.38
2023-05-13T21:08:16.548Z,94.28
2023-05-13T21:10:43.128Z,95.19
2023-05-13T21:13:10.158Z,95.21
2023-05-13T21:15:37.147Z,95.48
2023-05-13T21:18:04.342Z,95.47
2023-05-13T21:20:32.926Z,95.04
2023-05-13T21:23:01.454Z,95.22
2023-05-13T21:25:28.391Z,95.69
2023-05-13T21:27:55.239Z,96.11
2023-05-13T21:30:22.548Z,96.82
2023-05-13T21:32:52.484Z,97.30
2023-05-13T21:35:19.512Z,97.63
2023-05-13T21:37:47.473Z,99.19
2023-05-13T21:40:14.839Z,99.74
2023-05-13T21:42:41.784Z,99.96
2023-05-13T21:45:09.249Z,100.00
2023-05-13T21:47:36.182Z,99.12
2023-05-13T21:50:03.557Z,99.04
2023-05-13T21:52:30.524Z,99.45
2023-05-13T21:54:58.564Z,99.97
2023-05-13T21:57:25.695Z,98.92
2023-05-13T21:59:52.606Z,99.15
2023-05-13T22:02:19.472Z,99.42
2023-05-13T22:04:46.503Z,99.45
2023-05-13T22:07:13.424Z,99.07
2023-05-13T22:09:40.410Z,99.25
2023-05-13T22:12:07.484Z,98.62
2023-05-13T22:14:34.301Z,99.17
2023-05-13T22:17:09.178Z,99.35
2023-05-13T22:19:37.206Z,98.74
2023-05-13T22:22:04.421Z,99.46
2023-05-13T22:24:31.590Z,98.81
2023-05-13T22:26:59.051Z,99.46
2023-05-13T22:29:26.127Z,99.59
2023-05-13T22:31:53.203Z,99.58
2023-05-13T22:34:20.322Z,98.92
2023-05-13T22:36:47.198Z,99.03
2023-05-13T22:39:15.163Z,98.27
2023-05-13T22:41:41.768Z,98.09
2023-05-13T22:44:09.905Z,99.28
2023-05-13T22:46:43.636Z,99.51
2023-05-13T22:49:12.336Z,100.00
2023-05-13T22:51:39.185Z,99.56
2023-05-13T22:54:06.741Z,99.25
2023-05-13T22:56:33.603Z,99.30
2023-05-13T22:59:00.474Z,99.20
2023-05-13T23:01:31.686Z,98.78
2023-05-13T23:03:59.022Z,99.10
2023-05-13T23:06:26.709Z,100.00
2023-05-13T23:08:53.600Z,100.00
2023-05-13T23:11:20.605Z,100.00
2023-05-13T23:13:47.408Z,100.00
2023-05-13T23:16:14.585Z,100.00
2023-05-13T23:18:41.687Z,100.00
2023-05-13T23:21:09.314Z,100.00
2023-05-13T23:23:36.544Z,100.00
2023-05-13T23:26:05.902Z,100.00
2023-05-13T23:28:33.760Z,100.00
2023-05-13T23:31:00.674Z,100.00
2023-05-13T23:33:27.941Z,100.00
2023-05-13T23:35:57.948Z,100.00
2023-05-13T23:38:24.790Z,100.00
2023-05-13T23:40:51.633Z,100.00
2023-05-13T23:43:18.611Z,100.00
2023-05-13T23:45:46.423Z,100.00
2023-05-13T23:48:13.216Z,100.00
2023-05-13T23:50:41.858Z,100.00
2023-05-13T23:53:09.239Z,100.00
2023-05-13T23:55:36.426Z,100.00
2023-05-13T23:58:03.255Z,100.00
